Time;durP1;ratioP1;P1;durP2;ratioP2;P2;SDS_P1;SDS_P2;PMS_P1;PMS_P2;Temp;Humidity;BMP_temperature;BMP_pressure;BME280_temperature;BME280_humidity;BME280_pressure;Samples;Min_cycle;Max_cycle;Signal;HPM_P1;HPM_P2
2022/12/07 00:00:45;;;;;;;26.40;22.60;;;;;;;8.65;100.00;101714.69;2064596;28;20474;-63
2022/12/07 00:01:46;;;;;;;26.73;21.90;;;;;;;8.64;100.00;101702.06;2064467;28;20219;-63
2022/12/07 00:02:46;;;;;;;28.83;22.77;;;;;;;8.52;100.00;101688.63;2064262;28;20183;-63
2022/12/07 00:03:49;;;;;;;29.67;21.93;;;;;;;8.61;100.00;101702.88;2064122;28;20422;-63
2022/12/07 00:04:49;;;;;;;28.85;22.73;;;;;;;8.61;100.00;101695.34;2064286;28;20191;-63
2022/12/07 00:05:50;;;;;;;31.60;23.80;;;;;;;8.61;100.00;101703.63;2065096;28;20236;-63
2022/12/07 00:06:52;;;;;;;28.43;22.63;;;;;;;8.59;100.00;101702.44;2064597;28;20199;-63
2022/12/07 00:07:53;;;;;;;27.97;22.70;;;;;;;7.82;100.00;101578.81;2064517;28;20690;-63
2022/12/07 00:08:53;;;;;;;24.93;21.53;;;;;;;8.59;100.00;101697.72;2064803;28;20466;-63
2022/12/07 00:09:53;;;;;;;28.93;23.10;;;;;;;8.62;100.00;101699.69;2064534;28;20203;-63
2022/12/07 00:10:54;;;;;;;26.97;22.93;;;;;;;8.62;100.00;101699.69;2064639;28;20196;-63
2022/12/07 00:11:55;;;;;;;30.43;23.47;;;;;;;8.63;100.00;101697.72;2064108;28;20253;-63
2022/12/07 00:12:55;;;;;;;30.47;23.97;;;;;;;8.20;100.00;101629.81;2064144;28;20188;-63
2022/12/07 00:13:58;;;;;;;31.07;23.53;;;;;;;8.60;100.00;101681.91;2064994;28;20626;-63
2022/12/07 00:14:59;;;;;;;30.65;24.40;;;;;;;8.63;100.00;101687.47;2064570;28;20652;-63
2022/12/07 00:16:01;;;;;;;31.53;25.73;;;;;;;8.57;100.00;101683.50;2064695;28;20556;-63
2022/12/07 00:17:02;;;;;;;29.48;24.58;;;;;;;8.61;100.00;101689.03;2064540;28;20213;-63
2022/12/07 00:18:02;;;;;;;30.80;24.80;;;;;;;8.61;100.00;101698.09;2064657;28;20214;-63
2022/12/07 00:19:04;;;;;;;34.80;25.47;;;;;;;8.62;100.00;101688.63;2064537;28;20677;-63
2022/12/07 00:20:05;;;;;;;31.13;24.40;;;;;;;8.62;100.00;101696.91;2064589;28;20209;-63
2022/12/07 00:21:13;;;;;;;31.23;24.70;;;;;;;8.63;100.00;101697.72;2064615;28;20564;-63
2022/12/07 00:22:13;;;;;;;31.52;25.30;;;;;;;8.62;100.00;101688.63;2063577;28;20416;-63
2022/12/07 00:23:14;;;;;;;31.30;25.10;;;;;;;8.63;100.00;101693.00;2063343;28;20392;-63
2022/12/07 00:24:14;;;;;;;33.17;25.67;;;;;;;8.46;100.00;101682.69;2064235;28;20226;-63
2022/12/07 00:25:15;;;;;;;33.07;26.27;;;;;;;8.64;100.00;101699.28;2064280;28;20240;-63
2022/12/07 00:26:21;;;;;;;29.93;24.57;;;;;;;8.57;100.00;101694.53;2064573;28;20219;-63
2022/12/07 00:27:21;;;;;;;32.50;25.55;;;;;;;8.61;100.00;101703.63;2063827;28;20679;-63
2022/12/07 00:28:22;;;;;;;29.50;24.27;;;;;;;8.64;100.00;101702.06;2064492;28;20555;-63
2022/12/07 00:29:23;;;;;;;30.30;24.37;;;;;;;8.63;100.00;101706.81;2064632;28;20249;-63
2022/12/07 00:30:23;;;;;;;30.87;24.47;;;;;;;8.66;100.00;101706.00;2063759;28;20189;-63
2022/12/07 00:31:26;;;;;;;32.60;26.60;;;;;;;8.69;100.00;101712.72;2063727;28;20669;-63
2022/12/07 00:32:27;;;;;;;31.83;25.95;;;;;;;8.69;100.00;101704.44;2063840;28;20619;-63
2022/12/07 00:33:28;;;;;;;32.47;26.03;;;;;;;8.70;100.00;101698.53;2064495;28;20295;-63
2022/12/07 00:34:28;;;;;;;30.50;24.95;;;;;;;8.69;100.00;101705.22;2064400;28;20668;-63
2022/12/07 00:35:29;;;;;;;31.40;26.00;;;;;;;8.66;100.00;101703.25;2064478;28;20206;-63
2022/12/07 00:36:29;;;;;;;32.80;25.93;;;;;;;8.67;100.00;101704.81;2064577;28;20236;-63
2022/12/07 00:37:30;;;;;;;34.03;26.77;;;;;;;8.66;100.00;101700.47;2064157;28;20186;-63
2022/12/07 00:38:32;;;;;;;31.43;25.47;;;;;;;8.68;100.00;101703.66;2064272;28;20192;-63
2022/12/07 00:39:32;;;;;;;33.30;26.33;;;;;;;8.63;100.00;101694.97;2064081;28;20178;-63
2022/12/07 00:40:33;;;;;;;31.67;25.90;;;;;;;8.65;100.00;101696.16;2063614;28;20181;-63
2022/12/07 00:41:33;;;;;;;31.43;25.17;;;;;;;8.65;100.00;101698.91;2064122;28;20656;-63
2022/12/07 00:42:33;;;;;;;32.83;26.03;;;;;;;8.64;100.00;101694.56;2063738;28;20242;-63
2022/12/07 00:43:34;;;;;;;31.43;25.17;;;;;;;8.63;100.00;101697.72;2063992;28;20197;-63
2022/12/07 00:44:34;;;;;;;31.00;26.20;;;;;;;8.55;100.00;101688.63;2064301;28;20215;-63
2022/12/07 00:45:35;;;;;;;31.27;26.23;;;;;;;8.57;100.00;101699.28;2064281;28;20299;-63
2022/12/07 00:46:35;;;;;;;31.00;25.60;;;;;;;8.04;100.00;101618.31;2064498;28;20257;-63
2022/12/07 00:47:36;;;;;;;30.80;25.90;;;;;;;8.58;100.00;101698.09;2064385;28;20195;-63
2022/12/07 00:48:36;;;;;;;31.43;25.50;;;;;;;8.59;100.00;101696.91;2064329;28;20582;-63
2022/12/07 00:49:37;;;;;;;30.63;25.17;;;;;;;8.59;100.00;101696.91;2064530;28;20195;-63
2022/12/07 00:50:37;;;;;;;28.20;24.43;;;;;;;8.40;100.00;101675.97;2064910;28;20273;-63
2022/12/07 00:51:38;;;;;;;33.10;25.90;;;;;;;8.61;100.00;101698.09;2064044;28;20184;-63
2022/12/07 00:52:38;;;;;;;33.83;25.33;;;;;;;8.62;100.00;101704.44;2063377;28;20282;-63
2022/12/07 00:53:39;;;;;;;30.80;24.93;;;;;;;7.98;100.00;101595.81;2063900;28;20329;-63
2022/12/07 00:54:40;;;;;;;30.38;25.48;;;;;;;8.58;100.00;101676.81;2063762;28;20191;-63
2022/12/07 00:55:41;;;;;;;31.23;25.53;;;;;;;8.58;100.00;101676.00;2064142;28;20349;-63
2022/12/07 00:56:42;;;;;;;31.63;25.02;;;;;;;8.60;100.00;101679.16;2064305;28;20205;-63
2022/12/07 00:57:42;;;;;;;28.90;24.37;;;;;;;8.09;100.00;101598.59;2064388;28;20899;-63
2022/12/07 00:58:43;;;;;;;29.87;24.47;;;;;;;8.59;100.00;101672.84;2064659;28;20257;-63
2022/12/07 00:59:44;;;;;;;31.27;24.42;;;;;;;8.57;100.00;101677.19;2064428;28;20997;-63
2022/12/07 01:00:45;;;;;;;29.33;24.13;;;;;;;8.55;100.00;101666.53;2064275;28;20225;-63
2022/12/07 01:01:45;;;;;;;28.97;24.53;;;;;;;8.56;100.00;101672.84;2063993;28;20192;-63
2022/12/07 01:02:45;;;;;;;31.73;25.00;;;;;;;8.55;100.00;101668.50;2064091;28;20202;-63
2022/12/07 01:03:46;;;;;;;29.60;24.33;;;;;;;7.89;100.00;101572.53;2063789;28;20235;-63
2022/12/07 01:04:46;;;;;;;31.67;25.23;;;;;;;8.56;100.00;101662.56;2063718;28;20223;-63
2022/12/07 01:05:52;;;;;;;30.53;25.30;;;;;;;8.55;100.00;101671.25;2064241;28;20198;-63
2022/12/07 01:06:52;;;;;;;30.27;24.25;;;;;;;8.52;100.00;101666.53;2064064;28;20283;-63
2022/12/07 01:07:53;;;;;;;30.60;24.23;;;;;;;8.53;100.00;101660.63;2064743;28;20178;-63
2022/12/07 01:08:53;;;;;;;27.97;23.67;;;;;;;8.54;100.00;101667.72;2064241;28;20282;-63
2022/12/07 01:09:54;;;;;;;29.67;24.13;;;;;;;8.49;100.00;101659.81;2064217;28;20198;-63
2022/12/07 01:11:06;;;;;;;29.07;24.33;;;;;;;8.56;100.00;101662.56;2064184;28;20207;-63
2022/12/07 01:12:06;;;;;;;29.30;24.27;;;;;;;8.56;100.00;101664.56;2063750;28;20211;-63
2022/12/07 01:13:07;;;;;;;26.27;22.43;;;;;;;8.56;100.00;101659.81;2063842;28;20207;-63
2022/12/07 01:14:08;;;;;;;28.63;23.53;;;;;;;8.60;100.00;101665.34;2063835;28;20220;-63
2022/12/07 01:15:09;;;;;;;28.50;22.98;;;;;;;8.62;100.00;101658.22;2063887;28;20187;-63
2022/12/07 01:16:13;;;;;;;27.60;22.90;;;;;;;8.65;100.00;101670.47;2063955;28;20245;-63
2022/12/07 01:17:13;;;;;;;29.63;23.75;;;;;;;8.63;100.00;101670.09;2064298;28;20585;-63
2022/12/07 01:18:14;;;;;;;28.27;23.33;;;;;;;8.62;100.00;101669.28;2064547;28;20209;-63
2022/12/07 01:19:14;;;;;;;31.60;25.07;;;;;;;8.63;100.00;101664.56;2064317;28;20214;-63
2022/12/07 01:20:15;;;;;;;32.63;24.83;;;;;;;8.62;100.00;101660.22;2063974;28;20191;-63
2022/12/07 01:21:24;;;;;;;32.00;24.47;;;;;;;8.60;100.00;101668.09;2063940;28;20214;-63
2022/12/07 01:22:26;;;;;;;28.33;23.45;;;;;;;8.59;100.00;101661.81;2063558;28;20695;-63
2022/12/07 01:23:26;;;;;;;27.55;23.48;;;;;;;8.57;100.00;101658.63;2063319;28;20202;-63
2022/12/07 01:24:27;;;;;;;29.30;24.30;;;;;;;8.57;100.00;101661.38;2063920;28;20246;-63
2022/12/07 01:25:27;;;;;;;29.40;23.77;;;;;;;8.59;100.00;101659.03;2063697;28;20570;-63
2022/12/07 01:26:28;;;;;;;30.20;25.27;;;;;;;8.54;100.00;101655.88;2064172;28;20200;-63
2022/12/07 01:27:28;;;;;;;34.07;24.97;;;;;;;8.50;100.00;101650.34;2064385;28;20207;-63
2022/12/07 01:28:29;;;;;;;31.10;23.30;;;;;;;8.52;100.00;101653.53;2064034;28;20207;-63
2022/12/07 01:29:29;;;;;;;27.73;22.90;;;;;;;8.53;100.00;101654.28;2063923;28;20608;-63
2022/12/07 01:30:30;;;;;;;30.73;23.63;;;;;;;8.54;100.00;101655.88;2064095;28;20193;-63
2022/12/07 01:31:30;;;;;;;29.57;23.77;;;;;;;8.33;100.00;101625.47;2064151;28;20182;-63
2022/12/07 01:32:31;;;;;;;30.40;24.07;;;;;;;8.49;100.00;101645.19;2063257;28;20285;-63
2022/12/07 01:33:34;;;;;;;28.93;24.73;;;;;;;8.46;100.00;101643.25;2063752;28;20184;-63
2022/12/07 01:34:35;;;;;;;28.15;23.55;;;;;;;8.44;100.00;101646.41;2063815;28;20220;-63
2022/12/07 01:35:35;;;;;;;32.17;24.57;;;;;;;8.45;100.00;101647.19;2064365;28;20251;-63
2022/12/07 01:36:37;;;;;;;31.63;24.20;;;;;;;8.48;100.00;101647.19;2064151;28;20215;-63
2022/12/07 01:37:38;;;;;;;33.50;25.60;;;;;;;8.49;100.00;101653.50;2063917;28;20215;-63
2022/12/07 01:38:39;;;;;;;32.60;25.67;;;;;;;8.49;100.00;101646.00;2063744;28;20965;-63
2022/12/07 01:39:41;;;;;;;31.27;25.83;;;;;;;8.13;100.00;101593.84;2064019;28;20793;-63
2022/12/07 01:40:41;;;;;;;29.95;24.75;;;;;;;8.47;100.00;101656.69;2063673;28;20195;-63
2022/12/07 01:41:43;;;;;;;29.03;23.03;;;;;;;8.46;100.00;101649.53;2063377;28;20273;-63
2022/12/07 01:42:43;;;;;;;28.25;22.58;;;;;;;8.52;100.00;101655.47;2063363;28;20181;-63
2022/12/07 01:44:09;;;;;;;27.47;22.07;;;;;;;8.50;100.00;101655.88;2063743;28;20178;-63
2022/12/07 01:45:18;;;;;;;28.80;23.33;;;;;;;8.51;100.00;101656.66;2064121;28;20266;-63
2022/12/07 01:46:19;;;;;;;32.20;23.63;;;;;;;8.52;100.00;101655.47;2063671;28;20425;-63
2022/12/07 01:47:19;;;;;;;28.83;23.23;;;;;;;8.53;100.00;101643.25;2063744;28;21043;-63
2022/12/07 01:48:28;;;;;;;28.47;22.33;;;;;;;7.75;100.00;101526.34;2064014;28;20213;-63
2022/12/07 01:49:38;;;;;;;30.02;23.73;;;;;;;8.52;100.00;101648.00;2063708;28;20251;-63
2022/12/07 01:50:40;;;;;;;29.13;22.83;;;;;;;8.26;100.00;101603.38;2063175;28;20718;-63
2022/12/07 01:51:42;;;;;;;29.83;23.58;;;;;;;8.51;100.00;101648.38;2063548;28;20477;-63
2022/12/07 01:52:48;;;;;;;28.52;25.02;;;;;;;8.47;100.00;101648.38;2063403;28;20192;-63
2022/12/07 01:53:49;;;;;;;29.42;24.08;;;;;;;8.50;100.00;101649.56;2063223;28;20166;-63
2022/12/07 01:54:53;;;;;;;30.70;25.30;;;;;;;8.50;100.00;101655.88;2062997;28;20189;-63
2022/12/07 01:55:56;;;;;;;31.00;24.40;;;;;;;8.51;100.00;101648.38;2063686;28;20306;-63
2022/12/07 01:56:58;;;;;;;30.70;25.38;;;;;;;8.50;100.00;101641.28;2064133;28;20273;-63
2022/12/07 01:57:58;;;;;;;32.33;25.67;;;;;;;8.50;100.00;101652.34;2064312;28;20189;-63
2022/12/07 01:59:00;;;;;;;33.90;25.77;;;;;;;7.86;100.00;101548.47;2063606;28;20979;-63
2022/12/07 02:00:01;;;;;;;31.13;26.27;;;;;;;8.48;100.00;101654.69;2064068;28;20240;-63
2022/12/07 02:01:02;;;;;;;32.70;26.02;;;;;;;8.47;100.00;101644.81;2063589;28;21086;-63
2022/12/07 02:02:07;;;;;;;31.80;25.33;;;;;;;7.55;100.00;101500.31;2063029;28;20559;-63
2022/12/07 02:03:15;;;;;;;30.65;25.15;;;;;;;8.49;100.00;101645.19;2063206;28;20242;-63
2022/12/07 02:04:16;;;;;;;33.00;25.15;;;;;;;8.09;100.00;101577.28;2063066;28;20590;-63
2022/12/07 02:05:18;;;;;;;30.53;24.67;;;;;;;8.56;100.00;101648.75;2063770;28;20306;-63
2022/12/07 02:06:23;;;;;;;30.35;25.02;;;;;;;8.55;100.00;101652.72;2063762;28;20198;-63
2022/12/07 02:07:26;;;;;;;29.08;24.08;;;;;;;8.35;100.00;101620.34;2063812;28;20171;-63
2022/12/07 02:08:27;;;;;;;29.40;23.38;;;;;;;8.58;100.00;101634.56;2064319;28;20620;-63
2022/12/07 02:09:27;;;;;;;29.93;22.93;;;;;;;8.59;100.00;101636.13;2063549;28;20195;-63
2022/12/07 02:10:30;;;;;;;30.63;23.20;;;;;;;8.63;100.00;101636.94;2063704;28;20195;-63
2022/12/07 02:11:31;;;;;;;29.80;25.20;;;;;;;8.62;100.00;101630.59;2063571;28;20645;-63
2022/12/07 02:12:31;;;;;;;32.73;25.20;;;;;;;8.62;100.00;101625.06;2063244;28;20439;-63
2022/12/07 02:13:36;;;;;;;29.57;23.90;;;;;;;8.62;100.00;101632.59;2063254;28;20206;-63
2022/12/07 02:14:37;;;;;;;30.80;24.88;;;;;;;8.59;100.00;101628.66;2063071;28;20195;-63
2022/12/07 02:15:53;;;;;;;30.83;24.50;;;;;;;8.12;100.00;101559.94;2063614;28;20192;-64
2022/12/07 02:17:05;;;;;;;31.58;25.55;;;;;;;8.54;100.00;101620.75;2063377;28;20185;-63
2022/12/07 02:18:36;;;;;;;30.65;24.50;;;;;;;8.54;100.00;101619.94;2063833;28;20184;-63
2022/12/07 02:19:52;;;;;;;30.77;24.60;;;;;;;8.53;100.00;101621.94;2063850;28;20269;-63
2022/12/07 02:21:12;;;;;;;31.67;25.45;;;;;;;8.52;100.00;101614.03;2063500;28;20222;-63
2022/12/07 02:22:56;;;;;;;34.83;25.42;;;;;;;8.54;100.00;101617.19;2063307;28;20653;-63
2022/12/07 02:24:15;;;;;;;30.52;23.48;;;;;;;8.51;100.00;101610.47;2064125;28;20200;-63
2022/12/07 02:25:30;;;;;;;31.40;25.42;;;;;;;8.50;100.00;101610.91;2063379;28;20564;-63
2022/12/07 02:26:51;;;;;;;33.83;24.75;;;;;;;8.01;100.00;101534.31;2063571;28;20203;-63
2022/12/07 02:28:04;;;;;;;29.95;24.02;;;;;;;8.50;100.00;101625.47;2063942;28;20187;-63
2022/12/07 02:29:13;;;;;;;32.80;23.88;;;;;;;8.51;100.00;101618.00;2063699;28;20195;-63
2022/12/07 02:30:20;;;;;;;31.77;23.73;;;;;;;8.50;100.00;101625.47;2063730;28;20185;-63
2022/12/07 02:31:23;;;;;;;32.88;24.52;;;;;;;8.54;100.00;101629.03;2064038;28;20247;-63
2022/12/07 02:32:39;;;;;;;35.20;25.23;;;;;;;8.51;100.00;101627.06;2062784;28;20199;-63
2022/12/07 02:33:57;;;;;;;31.67;23.80;;;;;;;8.47;100.00;101623.53;2063642;28;20185;-63
2022/12/07 02:35:15;;;;;;;33.85;25.48;;;;;;;8.21;100.00;101601.00;2063313;28;20240;-63
2022/12/07 02:36:18;;;;;;;32.40;23.88;;;;;;;8.48;100.00;101625.09;2063500;28;20221;-63
2022/12/07 02:37:30;;;;;;;32.38;23.75;;;;;;;8.48;100.00;101619.56;2063345;28;20657;-63
2022/12/07 02:38:58;;;;;;;33.13;24.25;;;;;;;8.50;100.00;101621.94;2063279;28;20218;-63
2022/12/07 02:40:05;;;;;;;32.65;24.27;;;;;;;8.56;100.00;101620.38;2062819;28;20679;-63
2022/12/07 02:41:12;;;;;;;33.87;23.77;;;;;;;8.09;100.00;101551.66;2063243;28;20267;-63
2022/12/07 02:42:19;;;;;;;35.60;24.73;;;;;;;8.58;100.00;101618.78;2062776;28;20440;-63
2022/12/07 02:43:25;;;;;;;33.85;24.17;;;;;;;8.58;100.00;101610.50;2063261;28;20214;-63
2022/12/07 02:44:28;;;;;;;33.78;23.70;;;;;;;8.59;100.00;101614.03;2063550;28;20176;-63
2022/12/07 02:45:31;;;;;;;36.15;24.92;;;;;;;8.57;100.00;101611.66;2063210;28;20188;-63
2022/12/07 02:47:03;;;;;;;30.55;23.80;;;;;;;8.50;100.00;101591.56;2063246;28;20195;-63
2022/12/07 02:48:06;;;;;;;32.25;24.02;;;;;;;8.60;100.00;101602.59;2055257;28;20229;-63
2022/12/07 02:49:08;;;;;;;31.80;23.55;;;;;;;8.61;100.00;101601.41;2063333;28;20197;-63
2022/12/07 02:50:09;;;;;;;30.98;23.45;;;;;;;8.62;100.00;101591.91;2063478;28;20190;-63
2022/12/07 02:51:10;;;;;;;33.42;24.50;;;;;;;8.62;100.00;101585.63;2063535;28;20690;-63
2022/12/07 02:52:10;;;;;;;35.03;24.23;;;;;;;8.62;100.00;101611.25;2063157;28;20648;-63
2022/12/07 02:53:37;;;;;;;32.60;23.60;;;;;;;8.60;100.00;101583.25;2062623;28;20237;-63
2022/12/07 02:54:38;;;;;;;34.75;24.17;;;;;;;8.56;100.00;101584.44;2062939;28;20212;-63
2022/12/07 02:55:41;;;;;;;35.00;24.83;;;;;;;8.57;100.00;101581.25;2063213;28;20247;-63
2022/12/07 02:57:07;;;;;;;32.33;25.50;;;;;;;8.57;100.00;101578.50;2063867;28;20655;-63
2022/12/07 02:58:26;;;;;;;31.23;23.40;;;;;;;8.48;100.00;101571.81;2063076;28;20265;-63
2022/12/07 02:59:35;;;;;;;34.65;24.73;;;;;;;8.59;100.00;101578.09;2062572;28;20751;-63
2022/12/07 03:00:58;;;;;;;29.77;23.25;;;;;;;8.60;100.00;101587.97;2063356;28;20253;-63
2022/12/07 03:02:18;;;;;;;35.65;23.67;;;;;;;8.65;100.00;101593.91;2063067;28;20215;-63
2022/12/07 03:03:18;;;;;;;36.72;23.63;;;;;;;8.30;100.00;101544.19;2062818;28;21032;-63
2022/12/07 03:04:22;;;;;;;36.50;24.13;;;;;;;8.61;100.00;101582.06;2063202;28;20197;-63
2022/12/07 03:05:50;;;;;;;33.70;23.67;;;;;;;8.58;100.00;101579.31;2062572;28;20209;-63
2022/12/07 03:07:01;;;;;;;36.17;24.25;;;;;;;8.54;100.00;101581.28;2062501;28;20222;-63
2022/12/07 03:08:04;;;;;;;36.85;23.95;;;;;;;8.46;100.00;101561.16;2063051;28;20264;-63
2022/12/07 03:09:13;;;;;;;34.38;23.77;;;;;;;8.42;100.00;101574.19;2063121;28;20606;-63
2022/12/07 03:10:28;;;;;;;37.03;24.63;;;;;;;7.70;100.00;101460.53;2063231;28;20190;-63
2022/12/07 03:11:46;;;;;;;35.60;24.75;;;;;;;8.48;100.00;101577.34;2063354;28;20336;-63
2022/12/07 03:13:05;;;;;;;36.25;25.20;;;;;;;8.51;100.00;101585.63;2063427;28;20187;-63
2022/12/07 03:14:20;;;;;;;34.42;23.63;;;;;;;8.54;100.00;101579.31;2062668;28;20639;-63
2022/12/07 03:15:34;;;;;;;37.08;24.33;;;;;;;8.60;100.00;101586.00;2063319;28;20650;-63
2022/12/07 03:17:13;;;;;;;33.28;23.40;;;;;;;8.64;100.00;101578.50;2063209;28;20648;-63
2022/12/07 03:18:18;;;;;;;32.60;21.98;;;;;;;8.66;100.00;101586.41;2063318;28;20342;-63
2022/12/07 03:19:21;;;;;;;35.38;24.73;;;;;;;8.57;100.00;101559.16;2063385;28;20199;-63
2022/12/07 03:20:24;;;;;;;34.20;24.38;;;;;;;8.14;100.00;101488.53;2063320;28;20197;-63
2022/12/07 03:21:31;;;;;;;32.65;23.83;;;;;;;8.14;100.00;101490.50;2063260;28;20214;-63
2022/12/07 03:22:35;;;;;;;32.97;23.58;;;;;;;8.61;100.00;101564.72;2062593;28;20226;-63
2022/12/07 03:23:39;;;;;;;33.65;24.45;;;;;;;8.61;100.00;101564.72;2063047;28;20234;-63
2022/12/07 03:24:54;;;;;;;36.08;25.58;;;;;;;8.40;100.00;101531.56;2062973;28;20238;-63
2022/12/07 03:25:58;;;;;;;37.70;24.35;;;;;;;8.58;100.00;101565.50;2063336;28;20248;-63
2022/12/07 03:27:11;;;;;;;34.35;24.13;;;;;;;8.59;100.00;101569.81;2062964;28;20278;-63
2022/12/07 03:28:15;;;;;;;34.73;24.23;;;;;;;8.57;100.00;101572.19;2062240;28;20209;-63
2022/12/07 03:29:30;;;;;;;34.07;24.33;;;;;;;8.55;100.00;101572.59;2062499;28;20480;-63
2022/12/07 03:30:48;;;;;;;35.90;24.70;;;;;;;8.51;100.00;101565.50;2063284;28;20433;-63
2022/12/07 03:31:58;;;;;;;31.93;22.87;;;;;;;8.59;100.00;101581.69;2062845;28;20441;-63
2022/12/07 03:33:10;;;;;;;37.90;24.10;;;;;;;8.09;100.00;101505.50;2062979;28;20964;-63
2022/12/07 03:34:20;;;;;;;35.30;24.33;;;;;;;8.51;100.00;101571.03;2063101;28;20444;-63
2022/12/07 03:35:39;;;;;;;35.40;24.48;;;;;;;8.51;100.00;101566.28;2063511;28;20419;-63
2022/12/07 03:36:47;;;;;;;38.45;25.15;;;;;;;8.56;100.00;101565.09;2062969;28;20202;-63
2022/12/07 03:38:02;;;;;;;37.67;24.13;;;;;;;7.87;100.00;101457.00;2062647;28;20201;-63
2022/12/07 03:39:44;;;;;;;36.00;24.35;;;;;;;8.57;100.00;101556.41;2063011;28;20180;-63
2022/12/07 03:41:14;;;;;;;37.53;24.63;;;;;;;8.60;100.00;101554.81;2061923;28;20222;-63
2022/12/07 03:42:15;;;;;;;33.80;22.97;;;;;;;8.33;100.00;101515.78;2061977;28;20194;-63
2022/12/07 03:43:17;;;;;;;33.70;23.80;;;;;;;8.56;100.00;101557.59;2062986;28;20443;-63
2022/12/07 03:44:19;;;;;;;38.00;24.85;;;;;;;8.58;100.00;101555.25;2063087;28;20193;-63
2022/12/07 03:45:26;;;;;;;34.60;25.67;;;;;;;8.62;100.00;101555.22;2063140;28;20615;-63
2022/12/07 03:46:51;;;;;;;35.28;25.42;;;;;;;8.64;100.00;101556.41;2062538;28;20194;-63
2022/12/07 03:48:19;;;;;;;36.33;25.13;;;;;;;8.61;100.00;101557.19;2062653;28;20192;-63
2022/12/07 03:49:41;;;;;;;36.00;25.20;;;;;;;8.56;100.00;101557.59;2063337;28;20434;-63
2022/12/07 03:50:53;;;;;;;35.75;25.70;;;;;;;8.53;100.00;101543.78;2062267;28;20221;-63
2022/12/07 03:51:56;;;;;;;35.42;25.27;;;;;;;8.60;100.00;101552.84;2061940;28;20182;-63
2022/12/07 03:53:04;;;;;;;37.42;26.02;;;;;;;7.87;100.00;101450.69;2061471;28;20205;-63
2022/12/07 03:54:18;;;;;;;40.10;25.67;;;;;;;8.57;100.00;101555.63;2062582;28;20264;-63
2022/12/07 03:55:25;;;;;;;36.90;26.80;;;;;;;8.57;100.00;101556.41;2062340;28;20205;-63
2022/12/07 03:56:27;;;;;;;38.38;26.55;;;;;;;8.50;100.00;101556.41;2063004;28;20655;-63
2022/12/07 03:57:30;;;;;;;40.83;26.65;;;;;;;8.48;100.00;101560.75;2062987;28;20201;-63
2022/12/07 03:58:32;;;;;;;37.53;26.33;;;;;;;8.43;100.00;101542.63;2062927;28;20203;-63
2022/12/07 03:59:33;;;;;;;38.50;26.17;;;;;;;8.49;100.00;101552.06;2063088;28;20295;-63
2022/12/07 04:00:34;;;;;;;38.20;27.35;;;;;;;8.02;100.00;101471.59;2062418;28;20207;-63
2022/12/07 04:01:34;;;;;;;37.83;25.10;;;;;;;8.54;100.00;101554.44;2063327;28;20223;-63
2022/12/07 04:02:36;;;;;;;37.30;26.60;;;;;;;8.56;100.00;101560.34;2062232;28;20619;-63
2022/12/07 04:03:36;;;;;;;39.88;26.63;;;;;;;8.59;100.00;101570.63;2062619;28;20206;-63
2022/12/07 04:04:36;;;;;;;38.43;27.03;;;;;;;8.56;100.00;101565.09;2063399;28;20752;-63
2022/12/07 04:05:38;;;;;;;38.93;26.53;;;;;;;8.59;100.00;101565.09;2062924;28;20209;-63
2022/12/07 04:06:39;;;;;;;37.70;25.42;;;;;;;8.62;100.00;101564.28;2063184;28;20238;-63
2022/12/07 04:07:41;;;;;;;40.90;26.60;;;;;;;8.61;100.00;101570.25;2063040;28;20231;-63
2022/12/07 04:08:41;;;;;;;38.25;25.33;;;;;;;8.60;100.00;101572.19;2062361;28;20676;-63
2022/12/07 04:09:41;;;;;;;38.33;26.57;;;;;;;8.57;100.00;101577.72;2062798;28;20565;-63
2022/12/07 04:10:42;;;;;;;35.73;25.27;;;;;;;8.59;100.00;101584.44;2062974;28;20183;-63
2022/12/07 04:11:43;;;;;;;36.77;25.03;;;;;;;8.57;100.00;101578.50;2062717;28;20188;-63
2022/12/07 04:12:43;;;;;;;39.57;25.83;;;;;;;8.66;100.00;101587.19;2063100;28;20657;-63
2022/12/07 04:15:04;;;;;;;35.95;23.60;;;;;;;8.61;100.00;101597.88;2062116;28;20172;-63
2022/12/07 04:16:05;;;;;;;39.67;25.52;;;;;;;8.61;100.00;101603.38;2062590;28;20189;-63
2022/12/07 04:17:05;;;;;;;38.97;25.73;;;;;;;8.60;100.00;101602.59;2062784;28;20195;-63
2022/12/07 04:18:06;;;;;;;39.73;26.13;;;;;;;8.66;100.00;101594.69;2063260;28;20195;-63
2022/12/07 04:19:06;;;;;;;39.77;25.80;;;;;;;8.65;100.00;101585.63;2062862;28;20229;-63
2022/12/07 04:20:08;;;;;;;41.13;26.23;;;;;;;8.37;100.00;101544.22;2063180;28;20223;-63
2022/12/07 04:21:08;;;;;;;39.05;25.58;;;;;;;8.49;100.00;101570.63;2062970;28;20294;-63
2022/12/07 04:22:09;;;;;;;39.23;25.67;;;;;;;8.54;100.00;101581.28;2062249;28;20182;-63
2022/12/07 04:23:09;;;;;;;40.27;26.87;;;;;;;8.42;100.00;101589.97;2062213;28;20552;-63
2022/12/07 04:24:11;;;;;;;40.07;26.60;;;;;;;8.36;100.00;101574.97;2062834;28;20213;-63
2022/12/07 04:25:12;;;;;;;37.42;24.88;;;;;;;8.40;100.00;101584.81;2062913;28;20223;-63
2022/12/07 04:26:12;;;;;;;40.60;26.17;;;;;;;8.39;100.00;101588.78;2062761;28;20196;-63
2022/12/07 04:27:13;;;;;;;42.77;26.90;;;;;;;8.43;100.00;101586.00;2063421;28;20287;-63
2022/12/07 04:28:13;;;;;;;39.20;26.70;;;;;;;8.46;100.00;101583.25;2064489;28;20199;-63
2022/12/07 04:29:15;;;;;;;38.97;26.17;;;;;;;8.49;100.00;101584.44;2064471;28;20583;-63
2022/12/07 04:30:16;;;;;;;42.47;26.63;;;;;;;8.52;100.00;101578.94;2064168;28;20193;-63
2022/12/07 04:31:16;;;;;;;42.07;25.53;;;;;;;8.53;100.00;101579.69;2064577;28;20439;-63
2022/12/07 04:32:17;;;;;;;36.00;24.87;;;;;;;8.51;100.00;101582.84;2064203;28;20193;-63
2022/12/07 04:33:17;;;;;;;37.53;25.50;;;;;;;8.52;100.00;101570.63;2064101;28;20289;-63
2022/12/07 04:34:19;;;;;;;35.33;25.03;;;;;;;8.53;100.00;101566.69;2064228;28;20640;-63
2022/12/07 04:35:20;;;;;;;37.60;24.97;;;;;;;8.09;100.00;101519.31;2064525;28;20201;-63
2022/12/07 04:36:20;;;;;;;38.27;25.83;;;;;;;8.57;100.00;101564.69;2064526;28;20672;-63
2022/12/07 04:37:21;;;;;;;38.77;25.30;;;;;;;8.58;100.00;101559.97;2064408;28;20198;-63
2022/12/07 04:38:22;;;;;;;40.17;26.07;;;;;;;8.59;100.00;101565.09;2064240;28;20225;-63
2022/12/07 04:39:26;;;;;;;35.63;24.67;;;;;;;8.20;100.00;101492.50;2064275;28;20436;-63
2022/12/07 04:40:26;;;;;;;38.33;26.03;;;;;;;8.63;100.00;101554.03;2063391;28;20191;-63
2022/12/07 04:41:27;;;;;;;40.07;25.97;;;;;;;8.46;100.00;101536.28;2064725;28;20522;-63
2022/12/07 04:42:28;;;;;;;34.90;24.60;;;;;;;8.64;100.00;101550.09;2063832;28;20254;-63
2022/12/07 04:43:28;;;;;;;39.40;25.47;;;;;;;8.63;100.00;101549.31;2063515;28;20539;-63
2022/12/07 04:44:29;;;;;;;38.93;24.83;;;;;;;8.64;100.00;101542.59;2064528;28;20273;-63
2022/12/07 04:45:30;;;;;;;35.47;24.03;;;;;;;8.64;100.00;101550.88;2064449;28;20196;-63
2022/12/07 04:46:31;;;;;;;40.07;24.30;;;;;;;8.68;100.00;101550.88;2064463;28;20499;-63
2022/12/07 04:47:32;;;;;;;39.53;24.57;;;;;;;8.65;100.00;101557.19;2064332;28;20187;-63
2022/12/07 04:48:32;;;;;;;37.83;24.23;;;;;;;8.51;100.00;101535.88;2064247;28;20571;-63
2022/12/07 04:49:33;;;;;;;41.00;25.60;;;;;;;8.49;100.00;101548.50;2064715;28;20194;-63
2022/12/07 04:50:35;;;;;;;41.80;26.00;;;;;;;8.36;100.00;101547.34;2064478;28;20193;-63
2022/12/07 04:51:35;;;;;;;44.90;25.97;;;;;;;8.36;100.00;101550.13;2064396;28;20640;-63
2022/12/07 04:52:36;;;;;;;42.70;26.23;;;;;;;8.36;100.00;101553.66;2063770;28;20856;-63
2022/12/07 04:53:36;;;;;;;42.07;25.90;;;;;;;8.42;100.00;101552.09;2063695;28;20221;-63
2022/12/07 04:54:37;;;;;;;36.90;24.63;;;;;;;8.50;100.00;101552.88;2063562;28;20194;-63
2022/12/07 04:55:37;;;;;;;38.17;24.30;;;;;;;8.50;100.00;101563.94;2063917;28;20218;-63
2022/12/07 04:56:38;;;;;;;39.43;24.53;;;;;;;8.51;100.00;101559.97;2064445;28;20191;-63